sensor_id;sensor_type;location;lat;lon;timestamp;pressure;altitude;pressure_sealevel;temperature;humidity
10135;BME280;5107;48.850;8.924;2023-07-20T00:01:25;96703.31;;;19.30;49.73
10135;BME280;5107;48.850;8.924;2023-07-20T00:03:50;96710.50;;;19.30;49.78
10135;BME280;5107;48.850;8.924;2023-07-20T00:06:24;96709.09;;;19.27;49.80
10135;BME280;5107;48.850;8.924;2023-07-20T00:08:54;96708.34;;;19.20;49.69
10135;BME280;5107;48.850;8.924;2023-07-20T00:11:20;96718.22;;;19.20;50.08
10135;BME280;5107;48.850;8.924;2023-07-20T00:13:45;96721.09;;;19.18;50.27
10135;BME280;5107;48.850;8.924;2023-07-20T00:16:11;96719.94;;;19.14;50.73
10135;BME280;5107;48.850;8.924;2023-07-20T00:18:36;96718.94;;;19.09;50.75
10135;BME280;5107;48.850;8.924;2023-07-20T00:21:01;96716.06;;;19.10;51.01
10135;BME280;5107;48.850;8.924;2023-07-20T00:23:27;96722.31;;;19.04;50.97
10135;BME280;5107;48.850;8.924;2023-07-20T00:25:53;96717.19;;;19.03;51.41
10135;BME280;5107;48.850;8.924;2023-07-20T00:28:19;96714.72;;;19.01;51.74
10135;BME280;5107;48.850;8.924;2023-07-20T00:30:44;96711.03;;;19.02;51.54
10135;BME280;5107;48.850;8.924;2023-07-20T00:33:12;96711.94;;;18.96;51.84
10135;BME280;5107;48.850;8.924;2023-07-20T00:35:38;96706.88;;;18.88;51.97
10135;BME280;5107;48.850;8.924;2023-07-20T00:38:04;96704.09;;;18.83;52.24
10135;BME280;5107;48.850;8.924;2023-07-20T00:40:39;96709.09;;;18.73;52.36
10135;BME280;5107;48.850;8.924;2023-07-20T00:43:05;96707.69;;;18.70;52.75
10135;BME280;5107;48.850;8.924;2023-07-20T00:45:32;96715.47;;;18.72;53.16
10135;BME280;5107;48.850;8.924;2023-07-20T00:47:58;96713.75;;;18.59;53.34
10135;BME280;5107;48.850;8.924;2023-07-20T00:50:25;96718.50;;;18.50;53.71
10135;BME280;5107;48.850;8.924;2023-07-20T00:52:51;96717.81;;;18.37;53.69
10135;BME280;5107;48.850;8.924;2023-07-20T00:55:18;96720.88;;;18.40;54.20
10135;BME280;5107;48.850;8.924;2023-07-20T00:57:44;96720.47;;;18.37;54.02
10135;BME280;5107;48.850;8.924;2023-07-20T01:00:10;96722.47;;;18.41;54.36
10135;BME280;5107;48.850;8.924;2023-07-20T01:02:35;96721.50;;;18.36;54.65
10135;BME280;5107;48.850;8.924;2023-07-20T01:05:02;96725.59;;;18.38;54.53
10135;BME280;5107;48.850;8.924;2023-07-20T01:07:34;96725.00;;;18.36;55.11
10135;BME280;5107;48.850;8.924;2023-07-20T01:10:05;96729.78;;;18.28;54.86
10135;BME280;5107;48.850;8.924;2023-07-20T01:12:42;96728.06;;;18.15;55.54
10135;BME280;5107;48.850;8.924;2023-07-20T01:15:08;96723.97;;;18.12;55.72
10135;BME280;5107;48.850;8.924;2023-07-20T01:17:34;96722.75;;;18.08;55.79
10135;BME280;5107;48.850;8.924;2023-07-20T01:20:00;96715.63;;;18.02;56.18
10135;BME280;5107;48.850;8.924;2023-07-20T01:26:19;96722.31;;;17.87;56.50
10135;BME280;5107;48.850;8.924;2023-07-20T01:33:39;96714.53;;;17.85;57.46
10135;BME280;5107;48.850;8.924;2023-07-20T01:36:07;96721.34;;;17.74;57.24
10135;BME280;5107;48.850;8.924;2023-07-20T01:38:33;96716.72;;;17.57;57.90
10135;BME280;5107;48.850;8.924;2023-07-20T01:40:58;96715.97;;;17.43;58.52
10135;BME280;5107;48.850;8.924;2023-07-20T01:43:24;96722.16;;;17.37;58.80
10135;BME280;5107;48.850;8.924;2023-07-20T01:45:49;96717.69;;;17.31;59.13
10135;BME280;5107;48.850;8.924;2023-07-20T01:48:15;96713.19;;;17.31;59.04
10135;BME280;5107;48.850;8.924;2023-07-20T01:50:40;96708.69;;;17.32;59.29
10135;BME280;5107;48.850;8.924;2023-07-20T01:53:05;96716.22;;;17.35;59.56
10135;BME280;5107;48.850;8.924;2023-07-20T01:55:31;96711.91;;;17.40;59.33
10135;BME280;5107;48.850;8.924;2023-07-20T01:57:56;96710.03;;;17.48;59.23
10135;BME280;5107;48.850;8.924;2023-07-20T02:00:22;96720.84;;;17.53;59.16
10135;BME280;5107;48.850;8.924;2023-07-20T02:02:50;96721.81;;;17.58;59.21
10135;BME280;5107;48.850;8.924;2023-07-20T02:05:15;96711.00;;;17.53;58.67
10135;BME280;5107;48.850;8.924;2023-07-20T02:07:41;96721.25;;;17.56;59.38
10135;BME280;5107;48.850;8.924;2023-07-20T02:10:07;96717.16;;;17.54;59.31
10135;BME280;5107;48.850;8.924;2023-07-20T02:12:32;96712.03;;;17.52;59.39
10135;BME280;5107;48.850;8.924;2023-07-20T02:14:57;96711.63;;;17.55;59.33
10135;BME280;5107;48.850;8.924;2023-07-20T02:17:23;96709.78;;;17.49;59.09
10135;BME280;5107;48.850;8.924;2023-07-20T02:19:56;96711.47;;;17.43;59.93
10135;BME280;5107;48.850;8.924;2023-07-20T02:22:22;96717.22;;;17.40;60.06
10135;BME280;5107;48.850;8.924;2023-07-20T02:24:48;96708.03;;;17.36;60.51
10135;BME280;5107;48.850;8.924;2023-07-20T02:27:14;96713.75;;;17.33;60.11
10135;BME280;5107;48.850;8.924;2023-07-20T02:29:40;96719.69;;;17.35;60.33
10135;BME280;5107;48.850;8.924;2023-07-20T02:32:06;96716.03;;;17.30;60.58
10135;BME280;5107;48.850;8.924;2023-07-20T02:34:32;96715.84;;;17.25;60.70
10135;BME280;5107;48.850;8.924;2023-07-20T02:36:57;96712.78;;;17.28;60.65
10135;BME280;5107;48.850;8.924;2023-07-20T02:39:24;96716.81;;;17.37;60.60
10135;BME280;5107;48.850;8.924;2023-07-20T02:41:49;96722.31;;;17.42;60.21
10135;BME280;5107;48.850;8.924;2023-07-20T02:44:15;96726.81;;;17.48;59.92
10135;BME280;5107;48.850;8.924;2023-07-20T02:46:40;96735.63;;;17.42;60.29
10135;BME280;5107;48.850;8.924;2023-07-20T02:49:06;96731.56;;;17.39;60.71
10135;BME280;5107;48.850;8.924;2023-07-20T02:51:31;96723.78;;;17.38;59.98
10135;BME280;5107;48.850;8.924;2023-07-20T02:53:56;96739.31;;;17.41;60.61
10135;BME280;5107;48.850;8.924;2023-07-20T02:56:22;96740.97;;;17.35;60.68
10135;BME280;5107;48.850;8.924;2023-07-20T02:58:48;96737.50;;;17.35;60.26
10135;BME280;5107;48.850;8.924;2023-07-20T03:01:13;96734.41;;;17.38;60.67
10135;BME280;5107;48.850;8.924;2023-07-20T03:03:39;96733.63;;;17.31;60.59
10135;BME280;5107;48.850;8.924;2023-07-20T03:06:05;96732.63;;;17.25;61.22
10135;BME280;5107;48.850;8.924;2023-07-20T03:08:30;96738.19;;;17.17;61.05
10135;BME280;5107;48.850;8.924;2023-07-20T03:10:56;96735.31;;;17.19;61.42
10135;BME280;5107;48.850;8.924;2023-07-20T03:13:21;96737.38;;;17.10;61.72
10135;BME280;5107;48.850;8.924;2023-07-20T03:15:46;96735.81;;;16.96;62.36
10135;BME280;5107;48.850;8.924;2023-07-20T03:18:12;96739.53;;;16.82;63.44
10135;BME280;5107;48.850;8.924;2023-07-20T03:20:38;96738.94;;;16.73;63.85
10135;BME280;5107;48.850;8.924;2023-07-20T03:23:03;96745.69;;;16.62;64.61
10135;BME280;5107;48.850;8.924;2023-07-20T03:25:29;96741.19;;;16.56;64.56
10135;BME280;5107;48.850;8.924;2023-07-20T03:27:54;96739.34;;;16.44;64.64
10135;BME280;5107;48.850;8.924;2023-07-20T03:30:19;96736.47;;;16.25;64.84
10135;BME280;5107;48.850;8.924;2023-07-20T03:32:45;96744.44;;;16.25;65.62
10135;BME280;5107;48.850;8.924;2023-07-20T03:35:10;96745.47;;;16.05;65.88
10135;BME280;5107;48.850;8.924;2023-07-20T03:37:35;96743.19;;;15.82;66.50
10135;BME280;5107;48.850;8.924;2023-07-20T03:40:02;96737.03;;;15.75;66.76
10135;BME280;5107;48.850;8.924;2023-07-20T03:42:28;96740.72;;;15.67;67.69
10135;BME280;5107;48.850;8.924;2023-07-20T03:44:53;96741.09;;;15.57;67.41
10135;BME280;5107;48.850;8.924;2023-07-20T03:47:19;96745.53;;;15.50;67.81
10135;BME280;5107;48.850;8.924;2023-07-20T03:49:44;96744.91;;;15.48;67.97
10135;BME280;5107;48.850;8.924;2023-07-20T03:52:09;96746.63;;;15.63;68.16
10135;BME280;5107;48.850;8.924;2023-07-20T03:54:35;96750.69;;;15.59;67.88
10135;BME280;5107;48.850;8.924;2023-07-20T03:57:00;96745.25;;;15.73;68.29
10135;BME280;5107;48.850;8.924;2023-07-20T03:59:26;96747.47;;;15.83;68.44
10135;BME280;5107;48.850;8.924;2023-07-20T04:01:51;96748.31;;;16.16;66.99
10135;BME280;5107;48.850;8.924;2023-07-20T04:04:16;96753.25;;;16.06;65.98
10135;BME280;5107;48.850;8.924;2023-07-20T04:06:42;96753.63;;;16.03;67.97
10135;BME280;5107;48.850;8.924;2023-07-20T04:09:11;96755.69;;;16.21;66.60
10135;BME280;5107;48.850;8.924;2023-07-20T04:11:36;96753.41;;;15.85;66.59
10135;BME280;5107;48.850;8.924;2023-07-20T04:14:02;96764.25;;;16.03;67.42
10135;BME280;5107;48.850;8.924;2023-07-20T04:16:27;96758.34;;;16.41;68.63
10135;BME280;5107;48.850;8.924;2023-07-20T04:18:55;96759.31;;;17.05;66.92
10135;BME280;5107;48.850;8.924;2023-07-20T04:21:21;96767.78;;;17.85;63.15
10135;BME280;5107;48.850;8.924;2023-07-20T04:23:47;96760.09;;;18.58;60.76
10135;BME280;5107;48.850;8.924;2023-07-20T04:26:12;96754.06;;;19.42;56.34
10135;BME280;5107;48.850;8.924;2023-07-20T04:28:38;96763.56;;;19.02;55.81
10135;BME280;5107;48.850;8.924;2023-07-20T04:31:12;96760.59;;;19.28;55.38
10135;BME280;5107;48.850;8.924;2023-07-20T04:33:38;96766.53;;;19.12;56.12
10135;BME280;5107;48.850;8.924;2023-07-20T04:36:04;96766.03;;;19.40;55.57
10135;BME280;5107;48.850;8.924;2023-07-20T04:38:30;96762.72;;;18.65;58.41
10135;BME280;5107;48.850;8.924;2023-07-20T04:40:55;96763.81;;;18.26;58.06
10135;BME280;5107;48.850;8.924;2023-07-20T04:43:20;96769.69;;;18.34;59.00
10135;BME280;5107;48.850;8.924;2023-07-20T04:45:46;96760.69;;;18.04;59.47
10135;BME280;5107;48.850;8.924;2023-07-20T04:48:13;96769.00;;;18.45;58.59
10135;BME280;5107;48.850;8.924;2023-07-20T04:50:43;96761.00;;;19.31;57.13
10135;BME280;5107;48.850;8.924;2023-07-20T04:53:10;96759.19;;;19.62;55.83
10135;BME280;5107;48.850;8.924;2023-07-20T04:55:37;96766.44;;;19.73;54.94
10135;BME280;5107;48.850;8.924;2023-07-20T04:58:03;96761.84;;;19.80;54.57
10135;BME280;5107;48.850;8.924;2023-07-20T05:00:30;96764.13;;;19.77;54.67
10135;BME280;5107;48.850;8.924;2023-07-20T05:02:55;96764.31;;;19.63;54.74
10135;BME280;5107;48.850;8.924;2023-07-20T05:05:21;96758.56;;;20.20;53.56
10135;BME280;5107;48.850;8.924;2023-07-20T05:07:46;96757.06;;;20.65;52.12
10135;BME280;5107;48.850;8.924;2023-07-20T05:10:12;96760.19;;;19.79;54.04
10135;BME280;5107;48.850;8.924;2023-07-20T05:12:37;96765.66;;;18.56;57.54
10135;BME280;5107;48.850;8.924;2023-07-20T05:15:03;96765.31;;;17.83;59.97
10135;BME280;5107;48.850;8.924;2023-07-20T05:17:32;96767.91;;;17.65;61.33
10135;BME280;5107;48.850;8.924;2023-07-20T05:19:57;96771.22;;;17.48;62.28
10135;BME280;5107;48.850;8.924;2023-07-20T05:22:22;96776.53;;;17.99;60.97
10135;BME280;5107;48.850;8.924;2023-07-20T05:24:49;96773.03;;;18.79;59.52
10135;BME280;5107;48.850;8.924;2023-07-20T05:27:15;96766.16;;;19.08;58.30
10135;BME280;5107;48.850;8.924;2023-07-20T05:29:44;96771.56;;;20.04;55.10
10135;BME280;5107;48.850;8.924;2023-07-20T05:32:10;96772.50;;;20.87;53.04
10135;BME280;5107;48.850;8.924;2023-07-20T05:34:35;96763.06;;;21.42;51.24
10135;BME280;5107;48.850;8.924;2023-07-20T05:37:00;96764.25;;;22.03;50.23
10135;BME280;5107;48.850;8.924;2023-07-20T05:39:26;96760.50;;;20.42;52.90
10135;BME280;5107;48.850;8.924;2023-07-20T05:41:51;96758.75;;;19.65;54.93
10135;BME280;5107;48.850;8.924;2023-07-20T05:44:16;96755.06;;;19.29;56.29
10135;BME280;5107;48.850;8.924;2023-07-20T05:46:41;96763.72;;;19.25;57.11
10135;BME280;5107;48.850;8.924;2023-07-20T05:49:07;96759.25;;;19.74;56.13
10135;BME280;5107;48.850;8.924;2023-07-20T05:51:32;96758.34;;;20.21;54.61
10135;BME280;5107;48.850;8.924;2023-07-20T05:53:58;96753.44;;;20.06;54.93
10135;BME280;5107;48.850;8.924;2023-07-20T05:56:23;96756.28;;;19.93;55.47
10135;BME280;5107;48.850;8.924;2023-07-20T05:58:48;96762.56;;;19.57;56.48
10135;BME280;5107;48.850;8.924;2023-07-20T06:01:14;96759.47;;;19.72;56.40
10135;BME280;5107;48.850;8.924;2023-07-20T06:03:39;96767.84;;;20.17;55.45
10135;BME280;5107;48.850;8.924;2023-07-20T06:06:04;96765.44;;;20.16;55.28
10135;BME280;5107;48.850;8.924;2023-07-20T06:08:31;96768.41;;;20.37;54.60
10135;BME280;5107;48.850;8.924;2023-07-20T06:10:57;96770.28;;;20.60;53.88
10135;BME280;5107;48.850;8.924;2023-07-20T06:13:22;96770.63;;;20.52;54.03
10135;BME280;5107;48.850;8.924;2023-07-20T06:15:48;96764.94;;;19.77;55.75
10135;BME280;5107;48.850;8.924;2023-07-20T06:18:14;96776.13;;;20.16;55.31
10135;BME280;5107;48.850;8.924;2023-07-20T06:20:39;96774.44;;;20.03;55.17
10135;BME280;5107;48.850;8.924;2023-07-20T06:23:05;96771.31;;;20.06;55.30
10135;BME280;5107;48.850;8.924;2023-07-20T06:25:31;96772.81;;;20.02;55.43
10135;BME280;5107;48.850;8.924;2023-07-20T06:27:56;96770.47;;;19.46;57.07
10135;BME280;5107;48.850;8.924;2023-07-20T06:30:22;96760.88;;;19.75;56.97
10135;BME280;5107;48.850;8.924;2023-07-20T06:32:48;96768.44;;;20.49;55.31
10135;BME280;5107;48.850;8.924;2023-07-20T06:35:13;96768.31;;;20.56;53.98
10135;BME280;5107;48.850;8.924;2023-07-20T06:37:39;96769.97;;;20.92;53.05
10135;BME280;5107;48.850;8.924;2023-07-20T06:40:05;96768.88;;;21.28;53.58
10135;BME280;5107;48.850;8.924;2023-07-20T06:42:31;96769.72;;;21.16;52.39
10135;BME280;5107;48.850;8.924;2023-07-20T06:44:57;96764.47;;;20.52;53.44
10135;BME280;5107;48.850;8.924;2023-07-20T06:47:22;96757.97;;;20.18;54.09
10135;BME280;5107;48.850;8.924;2023-07-20T06:49:47;96759.38;;;19.79;55.15
10135;BME280;5107;48.850;8.924;2023-07-20T06:52:13;96767.53;;;20.25;54.84
10135;BME280;5107;48.850;8.924;2023-07-20T06:54:38;96757.00;;;20.42;53.47
10135;BME280;5107;48.850;8.924;2023-07-20T06:57:04;96752.72;;;20.53;53.38
10135;BME280;5107;48.850;8.924;2023-07-20T06:59:30;96756.25;;;20.65;53.44
10135;BME280;5107;48.850;8.924;2023-07-20T07:01:55;96755.19;;;20.54;54.50
10135;BME280;5107;48.850;8.924;2023-07-20T07:04:21;96763.88;;;21.31;52.36
10135;BME280;5107;48.850;8.924;2023-07-20T07:06:46;96755.50;;;21.96;51.08
10135;BME280;5107;48.850;8.924;2023-07-20T07:09:12;96762.84;;;21.09;51.91
10135;BME280;5107;48.850;8.924;2023-07-20T07:11:37;96755.06;;;20.72;52.59
10135;BME280;5107;48.850;8.924;2023-07-20T07:14:03;96755.31;;;20.82;53.59
10135;BME280;5107;48.850;8.924;2023-07-20T07:16:28;96757.25;;;20.52;53.60
10135;BME280;5107;48.850;8.924;2023-07-20T07:18:53;96760.50;;;20.42;54.68
10135;BME280;5107;48.850;8.924;2023-07-20T07:21:19;96749.25;;;21.22;53.00
10135;BME280;5107;48.850;8.924;2023-07-20T07:23:45;96756.59;;;21.67;52.37
10135;BME280;5107;48.850;8.924;2023-07-20T07:26:11;96755.03;;;21.42;51.64
10135;BME280;5107;48.850;8.924;2023-07-20T07:28:36;96766.75;;;21.53;52.10
10135;BME280;5107;48.850;8.924;2023-07-20T07:31:04;96762.28;;;21.99;50.77
10135;BME280;5107;48.850;8.924;2023-07-20T07:33:30;96752.84;;;22.24;49.86
10135;BME280;5107;48.850;8.924;2023-07-20T07:35:55;96757.13;;;23.09;48.27
10135;BME280;5107;48.850;8.924;2023-07-20T07:38:20;96756.94;;;23.16;47.08
10135;BME280;5107;48.850;8.924;2023-07-20T07:40:46;96752.31;;;22.11;49.14
10135;BME280;5107;48.850;8.924;2023-07-20T07:43:11;96762.28;;;21.18;51.70
10135;BME280;5107;48.850;8.924;2023-07-20T07:45:38;96755.59;;;21.44;51.12
10135;BME280;5107;48.850;8.924;2023-07-20T07:48:05;96755.72;;;21.38;51.75
10135;BME280;5107;48.850;8.924;2023-07-20T07:50:31;96761.47;;;21.06;51.72
10135;BME280;5107;48.850;8.924;2023-07-20T07:52:56;96757.72;;;21.31;51.66
10135;BME280;5107;48.850;8.924;2023-07-20T07:55:22;96752.72;;;21.11;52.27
10135;BME280;5107;48.850;8.924;2023-07-20T07:57:47;96747.97;;;20.55;52.98
10135;BME280;5107;48.850;8.924;2023-07-20T08:00:14;96753.94;;;21.43;52.18
10135;BME280;5107;48.850;8.924;2023-07-20T08:02:43;96758.34;;;21.89;51.65
10135;BME280;5107;48.850;8.924;2023-07-20T08:05:09;96759.84;;;21.85;51.57
10135;BME280;5107;48.850;8.924;2023-07-20T08:07:35;96756.81;;;22.72;49.29
10135;BME280;5107;48.850;8.924;2023-07-20T08:10:00;96749.13;;;22.76;47.82
10135;BME280;5107;48.850;8.924;2023-07-20T08:12:26;96759.19;;;23.24;47.32
10135;BME280;5107;48.850;8.924;2023-07-20T08:14:51;96749.25;;;23.90;45.75
10135;BME280;5107;48.850;8.924;2023-07-20T08:17:17;96744.91;;;23.40;45.98
10135;BME280;5107;48.850;8.924;2023-07-20T08:19:43;96752.03;;;22.91;46.90
10135;BME280;5107;48.850;8.924;2023-07-20T08:22:09;96749.66;;;22.94;46.67
10135;BME280;5107;48.850;8.924;2023-07-20T08:24:34;96743.88;;;23.90;45.39
10135;BME280;5107;48.850;8.924;2023-07-20T08:27:00;96743.94;;;23.29;45.04
10135;BME280;5107;48.850;8.924;2023-07-20T08:29:25;96750.31;;;22.85;46.38
10135;BME280;5107;48.850;8.924;2023-07-20T08:31:50;96743.59;;;22.82;47.27
10135;BME280;5107;48.850;8.924;2023-07-20T08:34:16;96761.78;;;22.80;47.77
10135;BME280;5107;48.850;8.924;2023-07-20T08:36:41;96758.44;;;22.40;48.09
10135;BME280;5107;48.850;8.924;2023-07-20T08:39:06;96754.88;;;22.34;49.34
10135;BME280;5107;48.850;8.924;2023-07-20T08:41:34;96764.00;;;22.05;49.65
10135;BME280;5107;48.850;8.924;2023-07-20T08:44:00;96755.31;;;22.76;48.68
10135;BME280;5107;48.850;8.924;2023-07-20T08:46:26;96753.66;;;23.52;46.44
10135;BME280;5107;48.850;8.924;2023-07-20T08:48:53;96752.91;;;24.05;45.43
10135;BME280;5107;48.850;8.924;2023-07-20T08:51:20;96759.84;;;23.53;45.55
10135;BME280;5107;48.850;8.924;2023-07-20T08:53:47;96756.31;;;23.08;45.57
10135;BME280;5107;48.850;8.924;2023-07-20T08:56:13;96751.47;;;23.11;45.81
10135;BME280;5107;48.850;8.924;2023-07-20T08:58:39;96753.91;;;23.72;47.66
10135;BME280;5107;48.850;8.924;2023-07-20T09:01:08;96750.03;;;23.63;44.75
10135;BME280;5107;48.850;8.924;2023-07-20T09:03:33;96755.13;;;23.87;42.94
10135;BME280;5107;48.850;8.924;2023-07-20T09:05:59;96749.09;;;23.74;41.32
10135;BME280;5107;48.850;8.924;2023-07-20T09:08:25;96742.41;;;23.55;42.30
10135;BME280;5107;48.850;8.924;2023-07-20T09:10:50;96744.50;;;23.97;41.12
10135;BME280;5107;48.850;8.924;2023-07-20T09:13:16;96739.56;;;24.15;39.65
10135;BME280;5107;48.850;8.924;2023-07-20T09:15:47;96742.66;;;24.93;39.86
10135;BME280;5107;48.850;8.924;2023-07-20T09:18:23;96744.81;;;25.53;37.56
10135;BME280;5107;48.850;8.924;2023-07-20T09:20:49;96747.63;;;25.16;38.68
10135;BME280;5107;48.850;8.924;2023-07-20T09:23:14;96750.44;;;24.57;40.16
10135;BME280;5107;48.850;8.924;2023-07-20T09:25:40;96744.69;;;24.81;40.51
10135;BME280;5107;48.850;8.924;2023-07-20T09:28:05;96748.03;;;25.40;38.66
10135;BME280;5107;48.850;8.924;2023-07-20T09:30:31;96753.09;;;25.26;39.23
10135;BME280;5107;48.850;8.924;2023-07-20T09:32:56;96742.75;;;25.13;38.76
10135;BME280;5107;48.850;8.924;2023-07-20T09:35:22;96737.00;;;24.26;37.60
10135;BME280;5107;48.850;8.924;2023-07-20T09:37:53;96740.50;;;24.26;39.38
10135;BME280;5107;48.850;8.924;2023-07-20T09:40:20;96740.09;;;24.76;39.09
10135;BME280;5107;48.850;8.924;2023-07-20T09:42:45;96744.09;;;25.63;38.25
10135;BME280;5107;48.850;8.924;2023-07-20T09:45:11;96739.41;;;26.31;38.22
10135;BME280;5107;48.850;8.924;2023-07-20T09:47:37;96735.91;;;26.30;36.34
10135;BME280;5107;48.850;8.924;2023-07-20T09:50:04;96746.16;;;25.46;37.28
10135;BME280;5107;48.850;8.924;2023-07-20T09:52:30;96743.50;;;25.56;37.78
10135;BME280;5107;48.850;8.924;2023-07-20T09:54:57;96742.94;;;25.44;37.57
10135;BME280;5107;48.850;8.924;2023-07-20T09:57:23;96735.38;;;25.46;36.71
10135;BME280;5107;48.850;8.924;2023-07-20T09:59:48;96747.63;;;25.74;36.65
10135;BME280;5107;48.850;8.924;2023-07-20T10:02:20;96741.00;;;26.17;35.64
10135;BME280;5107;48.850;8.924;2023-07-20T11:28:37;96688.63;;;26.07;31.69
10135;BME280;5107;48.850;8.924;2023-07-20T11:31:03;96694.59;;;26.55;32.89
10135;BME280;5107;48.850;8.924;2023-07-20T11:33:28;96690.44;;;27.13;33.52
10135;BME280;5107;48.850;8.924;2023-07-20T11:35:53;96681.16;;;27.40;32.59
10135;BME280;5107;48.850;8.924;2023-07-20T11:38:19;96685.47;;;27.95;32.89
10135;BME280;5107;48.850;8.924;2023-07-20T11:40:45;96675.91;;;27.64;32.33
10135;BME280;5107;48.850;8.924;2023-07-20T11:43:12;96676.50;;;26.00;32.43
10135;BME280;5107;48.850;8.924;2023-07-20T11:45:38;96684.25;;;25.71;32.60
10135;BME280;5107;48.850;8.924;2023-07-20T11:48:04;96674.38;;;26.42;32.29
10135;BME280;5107;48.850;8.924;2023-07-20T11:50:30;96679.47;;;26.69;30.76
10135;BME280;5107;48.850;8.924;2023-07-20T11:52:55;96668.44;;;26.35;30.07
10135;BME280;5107;48.850;8.924;2023-07-20T11:55:21;96667.59;;;26.55;30.51
10135;BME280;5107;48.850;8.924;2023-07-20T11:58:06;96667.53;;;26.86;31.18
10135;BME280;5107;48.850;8.924;2023-07-20T12:00:33;96663.56;;;27.42;30.55
10135;BME280;5107;48.850;8.924;2023-07-20T12:02:59;96663.72;;;28.05;31.07
10135;BME280;5107;48.850;8.924;2023-07-20T12:05:25;96658.91;;;27.97;28.84
10135;BME280;5107;48.850;8.924;2023-07-20T12:07:51;96655.50;;;27.86;29.09
10135;BME280;5107;48.850;8.924;2023-07-20T12:10:24;96661.50;;;28.17;28.30
10135;BME280;5107;48.850;8.924;2023-07-20T12:12:50;96647.53;;;26.97;28.60
10135;BME280;5107;48.850;8.924;2023-07-20T12:17:45;96650.31;;;26.56;29.66
10135;BME280;5107;48.850;8.924;2023-07-20T12:20:11;96644.34;;;26.69;29.26
10135;BME280;5107;48.850;8.924;2023-07-20T12:22:41;96634.94;;;26.41;30.00
10135;BME280;5107;48.850;8.924;2023-07-20T12:25:08;96636.66;;;27.12;30.14
10135;BME280;5107;48.850;8.924;2023-07-20T12:27:37;96637.16;;;27.24;29.46
10135;BME280;5107;48.850;8.924;2023-07-20T12:30:07;96645.59;;;27.07;30.37
10135;BME280;5107;48.850;8.924;2023-07-20T12:32:33;96642.09;;;27.07;29.77
10135;BME280;5107;48.850;8.924;2023-07-20T12:34:58;96646.75;;;26.71;31.27
10135;BME280;5107;48.850;8.924;2023-07-20T12:37:25;96635.16;;;27.45;31.17
10135;BME280;5107;48.850;8.924;2023-07-20T12:39:51;96628.53;;;27.71;30.40
10135;BME280;5107;48.850;8.924;2023-07-20T12:42:16;96629.97;;;28.31;30.36
10135;BME280;5107;48.850;8.924;2023-07-20T12:44:42;96631.78;;;28.41;29.71
10135;BME280;5107;48.850;8.924;2023-07-20T12:47:07;96626.63;;;28.11;29.64
10135;BME280;5107;48.850;8.924;2023-07-20T12:49:32;96626.84;;;28.19;29.06
10135;BME280;5107;48.850;8.924;2023-07-20T12:51:58;96622.84;;;28.69;28.97
10135;BME280;5107;48.850;8.924;2023-07-20T12:54:23;96613.69;;;28.89;28.95
10135;BME280;5107;48.850;8.924;2023-07-20T12:56:48;96614.63;;;29.22;27.68
10135;BME280;5107;48.850;8.924;2023-07-20T12:59:14;96616.25;;;29.23;28.34
10135;BME280;5107;48.850;8.924;2023-07-20T13:01:39;96613.81;;;29.22;28.97
10135;BME280;5107;48.850;8.924;2023-07-20T13:04:06;96611.28;;;27.96;28.61
10135;BME280;5107;48.850;8.924;2023-07-20T13:06:34;96593.75;;;27.88;28.54
10135;BME280;5107;48.850;8.924;2023-07-20T13:09:00;96601.16;;;28.12;29.08
10135;BME280;5107;48.850;8.924;2023-07-20T13:11:25;96602.56;;;28.04;27.79
10135;BME280;5107;48.850;8.924;2023-07-20T13:13:51;96598.75;;;28.10;28.35
10135;BME280;5107;48.850;8.924;2023-07-20T13:16:16;96593.25;;;27.42;28.34
10135;BME280;5107;48.850;8.924;2023-07-20T13:18:42;96603.22;;;27.03;28.87
10135;BME280;5107;48.850;8.924;2023-07-20T13:21:07;96602.28;;;26.33;29.05
10135;BME280;5107;48.850;8.924;2023-07-20T13:23:36;96596.19;;;26.87;28.77
10135;BME280;5107;48.850;8.924;2023-07-20T13:26:02;96600.34;;;26.64;28.47
10135;BME280;5107;48.850;8.924;2023-07-20T13:28:28;96593.81;;;27.44;27.79
10135;BME280;5107;48.850;8.924;2023-07-20T13:30:53;96582.31;;;27.63;26.54
10135;BME280;5107;48.850;8.924;2023-07-20T13:33:18;96596.34;;;27.20;27.05
10135;BME280;5107;48.850;8.924;2023-07-20T13:35:44;96587.91;;;27.32;27.49
10135;BME280;5107;48.850;8.924;2023-07-20T13:38:09;96592.13;;;27.92;26.63
10135;BME280;5107;48.850;8.924;2023-07-20T13:40:34;96589.66;;;27.96;25.76
10135;BME280;5107;48.850;8.924;2023-07-20T13:43:02;96582.19;;;27.39;26.36
10135;BME280;5107;48.850;8.924;2023-07-20T13:45:27;96583.19;;;27.04;27.55
10135;BME280;5107;48.850;8.924;2023-07-20T13:47:52;96592.94;;;27.00;27.94
10135;BME280;5107;48.850;8.924;2023-07-20T13:50:18;96574.13;;;27.29;26.45
10135;BME280;5107;48.850;8.924;2023-07-20T13:52:43;96577.78;;;27.92;27.15
10135;BME280;5107;48.850;8.924;2023-07-20T13:55:08;96580.19;;;27.60;27.17
10135;BME280;5107;48.850;8.924;2023-07-20T13:57:33;96566.75;;;28.17;27.75
10135;BME280;5107;48.850;8.924;2023-07-20T13:59:59;96571.75;;;28.58;26.96
10135;BME280;5107;48.850;8.924;2023-07-20T14:02:26;96568.75;;;28.59;27.22
10135;BME280;5107;48.850;8.924;2023-07-20T14:04:51;96570.41;;;28.55;26.87
10135;BME280;5107;48.850;8.924;2023-07-20T14:07:16;96558.75;;;28.84;28.33
10135;BME280;5107;48.850;8.924;2023-07-20T14:09:42;96547.50;;;28.95;27.79
10135;BME280;5107;48.850;8.924;2023-07-20T14:12:07;96550.00;;;28.63;27.04
10135;BME280;5107;48.850;8.924;2023-07-20T14:14:36;96551.31;;;28.18;27.32
10135;BME280;5107;48.850;8.924;2023-07-20T14:17:01;96559.44;;;27.84;26.54
10135;BME280;5107;48.850;8.924;2023-07-20T14:19:27;96551.13;;;28.09;26.36
10135;BME280;5107;48.850;8.924;2023-07-20T14:21:52;96553.44;;;27.92;26.97
10135;BME280;5107;48.850;8.924;2023-07-20T14:24:17;96558.56;;;28.22;27.01
10135;BME280;5107;48.850;8.924;2023-07-20T14:26:43;96549.09;;;28.49;26.47
10135;BME280;5107;48.850;8.924;2023-07-20T14:29:08;96547.88;;;28.07;26.87
10135;BME280;5107;48.850;8.924;2023-07-20T14:31:33;96541.25;;;27.16;27.42
10135;BME280;5107;48.850;8.924;2023-07-20T14:33:59;96544.13;;;27.30;28.31
10135;BME280;5107;48.850;8.924;2023-07-20T14:36:24;96543.16;;;27.60;27.49
10135;BME280;5107;48.850;8.924;2023-07-20T14:38:50;96536.56;;;28.00;27.58